aviador You're here:

PMDY Decoded Metar

MIDWAY in MIDWAY ISLAND
Report Time2018-07-23 14:56:00
UTC Time2018-07-23 15:46:13
Flight Rules mvfr MVFR
Wind080° at 18 kt
W.Decomp.*RWY 06: 17.7 kt HW 3.1 kt RCW
W.Rank080° ranks 3
Current wind is above 080° avg. (12.3)
Visibility9999 m
Phenomena:N/A
Clouds:Broken 019 Hf
Broken 034 Hf
Overcast 070 Hf
Expected CloudBase > 800 ft AGL from Temp-Dew spread
Ceiling1,900 ft
Temp24°C (ISA +9)
Dew Point22°C (89% RH)
AAT22.3°C
QNH1021 hPa
Density Alt1,138 ft
Elevation13 ft
Report Wrong Elevation
Raw Report
PMDY 231456Z AUTO 08018KT 10SM BKN019 BKN034 OVC070 24/22 A3016
RMK AO2 PK WND 08027/1426 SLP212 60005 T02440222 58002=

Extra information for PMDY:More info

Metar Taf Metar & Taf Last 4 Metars F.Rules Stats Wind Profile Meteogram Temp Stats Airport Information Weather charts Add Link Nearby VenuesMetar ALERT Operation Metar Decoded Social comments